createdAt,value
2018-02-18T00:00:00.820Z,0.00
2018-02-18T00:01:00.770Z,0.00
2018-02-18T00:02:00.720Z,0.00
2018-02-18T00:03:00.669Z,0.00
2018-02-18T00:04:00.618Z,0.00
2018-02-18T00:05:00.568Z,0.00
2018-02-18T00:06:00.518Z,0.00
2018-02-18T00:07:00.468Z,0.00
2018-02-18T00:08:00.416Z,0.00
2018-02-18T00:09:00.516Z,0.00
2018-02-18T00:10:00.317Z,0.00
2018-02-18T00:11:00.266Z,0.00
2018-02-18T00:12:00.214Z,0.00
2018-02-18T00:13:00.165Z,0.00
2018-02-18T00:14:00.115Z,0.00
2018-02-18T00:15:00.064Z,0.00
2018-02-18T00:16:00.013Z,0.00
2018-02-18T00:16:59.962Z,0.00
2018-02-18T00:17:59.912Z,0.00
2018-02-18T00:18:59.862Z,0.00
2018-02-18T00:19:59.811Z,0.00
2018-02-18T00:20:59.760Z,0.00
2018-02-18T00:21:59.714Z,0.00
2018-02-18T00:22:59.660Z,0.00
2018-02-18T00:23:59.608Z,0.00
2018-02-18T00:24:59.558Z,0.00
2018-02-18T00:25:59.508Z,0.00
2018-02-18T00:26:59.458Z,0.00
2018-02-18T00:27:59.408Z,0.00
2018-02-18T00:28:59.356Z,0.00
2018-02-18T00:29:59.406Z,0.00
2018-02-18T00:30:59.269Z,0.00
2018-02-18T00:31:59.205Z,0.00
2018-02-18T00:32:59.155Z,0.00
2018-02-18T00:33:59.104Z,0.00
2018-02-18T00:34:59.054Z,0.00
2018-02-18T00:35:59.003Z,0.00
2018-02-18T00:36:58.952Z,0.00
2018-02-18T00:37:58.902Z,0.00
2018-02-18T00:38:58.853Z,0.00
2018-02-18T00:39:58.801Z,0.00
2018-02-18T00:40:58.751Z,0.00
2018-02-18T00:41:58.708Z,0.00
2018-02-18T00:42:58.649Z,0.00
2018-02-18T00:43:58.598Z,0.00
2018-02-18T00:44:58.548Z,0.00
2018-02-18T00:45:58.497Z,0.00
2018-02-18T00:46:58.448Z,0.00
2018-02-18T00:47:58.396Z,0.00
2018-02-18T00:48:58.370Z,0.00
2018-02-18T00:49:58.295Z,0.00
2018-02-18T00:50:58.244Z,0.00
2018-02-18T00:51:58.193Z,0.00
2018-02-18T00:52:58.242Z,0.00
2018-02-18T00:53:58.092Z,0.00
2018-02-18T00:54:58.041Z,0.00
2018-02-18T00:55:57.990Z,0.00
2018-02-18T00:56:57.942Z,0.00
2018-02-18T00:57:57.892Z,0.00
2018-02-18T00:58:57.839Z,0.00
2018-02-18T00:59:57.787Z,0.00
2018-02-18T01:00:57.737Z,0.00
2018-02-18T01:01:57.688Z,0.00
2018-02-18T01:02:57.636Z,0.00
2018-02-18T01:03:57.585Z,0.00
2018-02-18T01:04:57.536Z,0.00
2018-02-18T01:05:57.484Z,0.00
2018-02-18T01:06:57.433Z,0.00
2018-02-18T01:07:57.382Z,0.00
2018-02-18T01:08:57.332Z,0.00
2018-02-18T01:09:57.281Z,0.00
2018-02-18T01:10:57.231Z,0.00
2018-02-18T01:11:57.179Z,0.00
2018-02-18T01:12:57.129Z,0.00
2018-02-18T01:13:57.078Z,0.00
2018-02-18T01:14:57.028Z,0.00
2018-02-18T01:15:56.976Z,0.00
2018-02-18T01:16:56.930Z,0.00
2018-02-18T01:17:56.876Z,0.00
2018-02-18T01:18:56.828Z,0.00
2018-02-18T01:19:56.774Z,0.00
2018-02-18T01:20:56.724Z,0.00
2018-02-18T01:21:56.673Z,0.00
2018-02-18T01:22:56.623Z,0.00
2018-02-18T01:23:56.571Z,0.00
2018-02-18T01:24:56.522Z,0.00
2018-02-18T01:25:56.471Z,0.00
2018-02-18T01:26:56.420Z,0.00
2018-02-18T01:27:56.370Z,0.00
2018-02-18T01:28:56.320Z,0.00
2018-02-18T01:29:56.269Z,0.00
2018-02-18T01:30:56.219Z,0.00
2018-02-18T01:31:56.167Z,0.00
2018-02-18T01:32:56.118Z,0.00
2018-02-18T01:33:56.068Z,0.00
2018-02-18T01:34:56.023Z,0.00
2018-02-18T01:35:55.965Z,0.00
2018-02-18T01:36:55.915Z,0.00
2018-02-18T01:37:55.864Z,0.00
2018-02-18T01:38:55.817Z,0.00
2018-02-18T01:39:55.762Z,0.00
2018-02-18T01:40:55.713Z,0.00
2018-02-18T01:41:55.662Z,0.00
2018-02-18T01:42:55.614Z,0.00
2018-02-18T01:43:55.561Z,0.00
2018-02-18T01:44:55.513Z,0.00
2018-02-18T01:45:55.461Z,0.00
2018-02-18T01:46:55.411Z,0.00
2018-02-18T01:47:55.360Z,0.00
2018-02-18T01:48:55.309Z,0.00
2018-02-18T01:49:55.259Z,0.00
2018-02-18T01:50:55.210Z,0.00
2018-02-18T01:51:55.157Z,0.00
2018-02-18T01:52:55.107Z,0.00
2018-02-18T01:53:55.057Z,0.00
2018-02-18T01:54:55.007Z,0.00
2018-02-18T01:55:54.955Z,0.00
2018-02-18T01:56:54.905Z,0.00
2018-02-18T01:57:54.855Z,0.00
2018-02-18T01:58:54.804Z,0.00
2018-02-18T01:59:54.755Z,0.00
2018-02-18T02:00:54.703Z,0.00
2018-02-18T02:01:54.653Z,0.00
2018-02-18T02:02:54.603Z,0.00
2018-02-18T02:03:54.552Z,0.00
2018-02-18T02:04:54.502Z,0.00
2018-02-18T02:05:54.452Z,0.00
2018-02-18T02:06:54.402Z,0.00
2018-02-18T02:07:54.350Z,0.00
2018-02-18T02:08:54.300Z,0.00
2018-02-18T02:09:54.254Z,0.00
2018-02-18T02:10:54.200Z,0.00
2018-02-18T02:11:54.147Z,0.00
2018-02-18T02:12:54.098Z,0.00
2018-02-18T02:13:54.048Z,0.00
2018-02-18T02:14:53.999Z,0.00
2018-02-18T02:15:53.947Z,0.00
2018-02-18T02:16:53.897Z,0.00
2018-02-18T02:17:53.848Z,0.00
2018-02-18T02:18:53.800Z,0.00
2018-02-18T02:19:53.746Z,0.00
2018-02-18T02:20:53.696Z,0.00
2018-02-18T02:21:53.645Z,0.00
2018-02-18T02:22:53.595Z,0.00
2018-02-18T02:23:53.544Z,0.00
2018-02-18T02:24:53.494Z,0.00
2018-02-18T02:25:53.449Z,0.00
2018-02-18T02:26:53.395Z,0.00
2018-02-18T02:27:53.344Z,0.00
2018-02-18T02:28:53.292Z,0.00
2018-02-18T02:29:53.243Z,0.00
2018-02-18T02:30:53.194Z,0.00
2018-02-18T02:31:53.142Z,0.00
2018-02-18T02:32:53.092Z,0.00
2018-02-18T02:33:53.041Z,0.00
2018-02-18T02:34:52.992Z,0.00
2018-02-18T02:35:52.941Z,0.00
2018-02-18T02:36:52.893Z,0.00
2018-02-18T02:37:52.894Z,0.00
2018-02-18T02:38:52.794Z,0.00
2018-02-18T02:39:52.751Z,0.00
2018-02-18T02:40:52.689Z,0.00
2018-02-18T02:41:52.640Z,0.00
2018-02-18T02:42:52.589Z,0.00
2018-02-18T02:43:52.538Z,0.00
2018-02-18T02:44:52.489Z,0.00
2018-02-18T02:45:52.439Z,0.00
2018-02-18T02:46:52.387Z,0.00
2018-02-18T02:47:52.336Z,0.00
2018-02-18T02:48:52.286Z,0.00
2018-02-18T02:49:52.236Z,0.00
2018-02-18T02:50:52.186Z,0.00
2018-02-18T02:51:52.135Z,0.00
2018-02-18T02:52:52.086Z,0.00
2018-02-18T02:53:52.035Z,0.00
2018-02-18T02:54:51.985Z,0.00
2018-02-18T02:55:51.944Z,0.00
2018-02-18T02:56:51.883Z,0.00
2018-02-18T02:57:51.833Z,0.00
2018-02-18T02:58:51.783Z,0.00
2018-02-18T02:59:51.739Z,0.00
2018-02-18T03:00:51.682Z,0.00
2018-02-18T03:01:51.631Z,0.00
2018-02-18T03:02:51.582Z,0.00
2018-02-18T03:03:51.530Z,0.00
2018-02-18T03:04:51.480Z,0.00
2018-02-18T03:05:51.430Z,0.00
2018-02-18T03:06:51.380Z,0.00
2018-02-18T03:07:51.332Z,0.00
2018-02-18T03:08:51.279Z,0.00
2018-02-18T03:09:51.228Z,0.00
2018-02-18T03:10:51.178Z,0.00
2018-02-18T03:11:51.127Z,0.00
2018-02-18T03:12:51.077Z,0.00
2018-02-18T03:13:51.029Z,0.00
2018-02-18T03:14:50.976Z,0.00
2018-02-18T03:15:50.927Z,0.00
2018-02-18T03:16:50.878Z,0.00
2018-02-18T03:17:50.825Z,0.00
2018-02-18T03:18:50.776Z,0.00
2018-02-18T03:19:50.724Z,0.00
2018-02-18T03:20:50.681Z,0.00
2018-02-18T03:21:50.624Z,0.00
2018-02-18T03:22:50.573Z,0.00
2018-02-18T03:23:50.523Z,0.00
2018-02-18T03:24:50.473Z,0.00
2018-02-18T03:25:50.422Z,0.00
2018-02-18T03:26:50.373Z,0.00
2018-02-18T03:27:50.321Z,0.00
2018-02-18T03:28:50.271Z,0.00
2018-02-18T03:29:50.222Z,0.00
2018-02-18T03:30:50.172Z,0.00
2018-02-18T03:31:50.120Z,0.00
2018-02-18T03:32:50.070Z,0.00
2018-02-18T03:33:50.020Z,0.00
2018-02-18T03:34:49.969Z,0.00
2018-02-18T03:35:49.919Z,0.00
2018-02-18T03:36:49.868Z,0.00
2018-02-18T03:37:49.820Z,0.00
2018-02-18T03:38:49.768Z,0.00
2018-02-18T03:39:49.716Z,0.00
2018-02-18T03:40:49.669Z,0.00
2018-02-18T03:41:49.616Z,0.00
2018-02-18T03:42:49.565Z,0.00
2018-02-18T03:43:49.515Z,0.00
2018-02-18T03:44:49.466Z,0.00
2018-02-18T03:45:49.415Z,0.00
2018-02-18T03:46:49.365Z,0.00
2018-02-18T03:47:49.317Z,0.00
2018-02-18T03:48:49.264Z,0.00
2018-02-18T03:49:49.217Z,0.00
2018-02-18T03:50:49.163Z,0.00
2018-02-18T03:51:49.113Z,0.00
2018-02-18T03:52:49.067Z,0.00
2018-02-18T03:53:49.013Z,0.00
2018-02-18T03:54:48.963Z,0.00
2018-02-18T03:55:48.912Z,0.00
2018-02-18T03:56:48.862Z,0.00
2018-02-18T03:57:48.815Z,0.00
2018-02-18T03:58:48.762Z,0.00
2018-02-18T03:59:48.710Z,0.00
2018-02-18T04:00:48.660Z,0.00
2018-02-18T04:01:48.610Z,0.00
2018-02-18T04:02:48.560Z,0.00
2018-02-18T04:03:48.509Z,0.00
2018-02-18T04:04:48.462Z,0.00
2018-02-18T04:05:48.409Z,0.00
2018-02-18T04:06:48.359Z,0.00
2018-02-18T04:07:48.307Z,0.00
2018-02-18T04:08:48.257Z,0.00
2018-02-18T04:09:48.207Z,0.00
2018-02-18T04:10:48.156Z,0.00
2018-02-18T04:11:48.105Z,0.00
2018-02-18T04:12:48.055Z,0.00
2018-02-18T04:13:48.005Z,0.00
2018-02-18T04:14:47.955Z,0.00
2018-02-18T04:15:47.903Z,0.00
2018-02-18T04:16:47.854Z,0.00
2018-02-18T04:17:47.803Z,0.00
2018-02-18T04:18:47.753Z,0.00
2018-02-18T04:19:47.702Z,0.00
2018-02-18T04:20:47.652Z,0.00
2018-02-18T04:21:47.705Z,0.00
2018-02-18T04:22:47.551Z,0.00
2018-02-18T04:23:47.500Z,0.00
2018-02-18T04:24:47.450Z,0.00
2018-02-18T04:25:47.402Z,0.00
2018-02-18T04:26:47.349Z,0.00
2018-02-18T04:27:47.301Z,0.00
2018-02-18T04:28:47.248Z,0.00
2018-02-18T04:29:47.198Z,0.00
2018-02-18T04:30:47.148Z,0.00
2018-02-18T04:31:47.098Z,0.00
2018-02-18T04:32:47.046Z,0.00
2018-02-18T04:33:46.996Z,0.00
2018-02-18T04:34:46.945Z,0.00
2018-02-18T04:35:46.895Z,0.00
2018-02-18T04:36:46.845Z,0.00
2018-02-18T04:37:46.795Z,0.00
2018-02-18T04:38:46.744Z,0.00
2018-02-18T04:39:46.693Z,0.00
2018-02-18T04:40:46.643Z,0.00
2018-02-18T04:41:46.593Z,0.00
2018-02-18T04:42:46.549Z,0.00
2018-02-18T04:43:46.492Z,0.00
2018-02-18T04:44:46.442Z,0.00
2018-02-18T04:45:46.392Z,0.00
2018-02-18T04:46:46.341Z,0.00
2018-02-18T04:47:46.290Z,0.00
2018-02-18T04:48:46.240Z,0.00
2018-02-18T04:49:46.190Z,0.00
2018-02-18T04:50:46.139Z,0.00
2018-02-18T04:51:46.092Z,0.00
2018-02-18T04:52:46.038Z,0.00
2018-02-18T04:53:45.995Z,0.00
2018-02-18T04:54:45.938Z,0.00
2018-02-18T04:55:45.886Z,0.00
2018-02-18T04:56:45.836Z,0.00
2018-02-18T04:57:45.787Z,0.00
2018-02-18T04:58:45.736Z,0.00
2018-02-18T04:59:45.685Z,0.00
2018-02-18T05:00:45.634Z,0.00
2018-02-18T05:01:45.584Z,0.00
2018-02-18T05:02:45.534Z,0.00
2018-02-18T05:03:45.483Z,0.00
2018-02-18T05:04:45.433Z,0.00
2018-02-18T05:05:45.383Z,0.00
2018-02-18T05:06:45.332Z,0.00
2018-02-18T05:07:45.281Z,0.00
2018-02-18T05:08:45.231Z,0.00
2018-02-18T05:09:45.180Z,0.00
2018-02-18T05:10:45.130Z,0.00
2018-02-18T05:11:45.080Z,0.00
2018-02-18T05:12:45.030Z,0.00
2018-02-18T05:13:44.979Z,0.00
2018-02-18T05:14:44.929Z,0.00
2018-02-18T05:15:44.878Z,0.00
2018-02-18T05:16:44.828Z,0.00
2018-02-18T05:17:44.778Z,0.00
2018-02-18T05:18:44.727Z,0.00
2018-02-18T05:19:44.676Z,0.00
2018-02-18T05:20:44.626Z,0.00
2018-02-18T05:21:44.578Z,0.00
2018-02-18T05:22:44.526Z,0.00
2018-02-18T05:23:44.478Z,0.00
2018-02-18T05:24:44.424Z,0.00
2018-02-18T05:25:44.375Z,0.00
2018-02-18T05:26:44.325Z,0.00
2018-02-18T05:27:44.273Z,0.00
2018-02-18T05:28:44.224Z,0.00
2018-02-18T05:29:44.173Z,0.00
2018-02-18T05:30:44.123Z,0.00
2018-02-18T05:31:44.072Z,0.00
2018-02-18T05:32:44.023Z,0.00
2018-02-18T05:33:43.972Z,0.00
2018-02-18T05:34:43.922Z,0.00
2018-02-18T05:35:43.871Z,0.00
2018-02-18T05:36:43.820Z,0.00
2018-02-18T05:37:43.770Z,0.00
2018-02-18T05:38:43.720Z,0.00
2018-02-18T05:39:43.669Z,0.00
2018-02-18T05:40:43.619Z,0.00
2018-02-18T05:41:43.569Z,0.00
2018-02-18T05:42:43.519Z,0.00
2018-02-18T05:43:43.468Z,0.00
2018-02-18T05:44:43.417Z,0.00
2018-02-18T05:45:43.368Z,0.00
2018-02-18T05:46:43.317Z,0.00
2018-02-18T05:47:43.266Z,0.00
2018-02-18T05:48:43.216Z,0.00
2018-02-18T05:49:43.166Z,0.00
2018-02-18T05:50:43.116Z,0.00
2018-02-18T05:51:43.065Z,4.00
2018-02-18T05:52:43.014Z,4.00
2018-02-18T05:53:42.964Z,0.00
2018-02-18T05:54:42.915Z,0.00
2018-02-18T05:55:42.863Z,4.00
2018-02-18T05:56:42.813Z,0.00
2018-02-18T05:57:42.763Z,4.00
2018-02-18T05:58:42.713Z,4.00
2018-02-18T05:59:42.662Z,4.00
2018-02-18T06:00:42.611Z,8.00
2018-02-18T06:01:42.562Z,4.00
2018-02-18T06:02:42.511Z,8.00
2018-02-18T06:03:42.461Z,8.00
2018-02-18T06:04:42.411Z,8.00
2018-02-18T06:05:42.361Z,8.00
2018-02-18T06:06:42.311Z,12.00
2018-02-18T06:07:42.260Z,16.00
2018-02-18T06:08:42.210Z,16.00
2018-02-18T06:09:42.159Z,16.00
2018-02-18T06:10:42.110Z,20.00
2018-02-18T06:11:42.058Z,20.00
2018-02-18T06:12:42.008Z,24.00
2018-02-18T06:13:41.958Z,28.00
2018-02-18T06:14:41.908Z,28.00
2018-02-18T06:15:41.858Z,32.00
2018-02-18T06:16:41.807Z,40.00
2018-02-18T06:17:41.757Z,40.00
2018-02-18T06:18:41.707Z,44.00
2018-02-18T06:19:41.656Z,52.00
2018-02-18T06:20:41.610Z,56.00
2018-02-18T06:21:41.557Z,56.00
2018-02-18T06:22:41.513Z,64.00
2018-02-18T06:23:41.457Z,72.00
2018-02-18T06:24:41.406Z,76.00
2018-02-18T06:25:41.360Z,80.00
2018-02-18T06:26:41.305Z,88.00
2018-02-18T06:27:41.256Z,96.00
2018-02-18T06:28:41.205Z,96.00
2018-02-18T06:29:41.156Z,104.00
2018-02-18T06:30:41.104Z,108.00
2018-02-18T06:31:41.053Z,116.00
2018-02-18T06:32:41.004Z,124.00
2018-02-18T06:33:40.954Z,132.00
2018-02-18T06:34:40.904Z,140.00
2018-02-18T06:35:40.852Z,148.00
2018-02-18T06:36:40.807Z,152.00
2018-02-18T06:37:40.753Z,160.00
2018-02-18T06:38:40.702Z,168.00
2018-02-18T06:39:40.652Z,176.00
2018-02-18T06:40:40.602Z,188.00
2018-02-18T06:41:40.551Z,196.00
2018-02-18T06:42:40.503Z,204.00
2018-02-18T06:43:40.451Z,216.00
2018-02-18T06:44:40.400Z,224.00
2018-02-18T06:45:40.352Z,232.00
2018-02-18T06:46:40.301Z,244.00
2018-02-18T06:47:40.254Z,252.00
2018-02-18T06:48:40.200Z,264.00
2018-02-18T06:49:40.150Z,272.00
2018-02-18T06:50:40.100Z,284.00
2018-02-18T06:51:40.051Z,292.00
2018-02-18T06:52:39.999Z,300.00
2018-02-18T06:53:39.950Z,304.00
2018-02-18T06:54:39.899Z,312.00
2018-02-18T06:55:39.848Z,316.00
2018-02-18T06:56:39.798Z,328.00
2018-02-18T06:57:39.749Z,332.00
2018-02-18T06:58:39.699Z,340.00
2018-02-18T06:59:39.647Z,348.00
2018-02-18T07:00:39.597Z,356.00
2018-02-18T07:01:39.547Z,364.00
2018-02-18T07:02:39.498Z,376.00
2018-02-18T07:03:39.447Z,388.00
2018-02-18T07:04:39.397Z,396.00
2018-02-18T07:05:39.349Z,404.00
2018-02-18T07:06:39.297Z,416.00
2018-02-18T07:07:39.246Z,424.00
2018-02-18T07:08:39.200Z,436.00
2018-02-18T07:09:39.146Z,452.00
2018-02-18T07:10:39.096Z,468.00
2018-02-18T07:11:39.045Z,484.00
2018-02-18T07:12:38.998Z,496.00
2018-02-18T07:13:38.945Z,516.00
2018-02-18T07:14:38.895Z,536.00
2018-02-18T07:15:38.845Z,548.00
2018-02-18T07:16:38.795Z,560.00
2018-02-18T07:17:38.751Z,576.00
2018-02-18T07:18:38.695Z,584.00
2018-02-18T07:19:38.644Z,600.00
2018-02-18T07:20:38.594Z,616.00
2018-02-18T07:21:38.545Z,632.00
2018-02-18T07:22:38.497Z,652.00
2018-02-18T07:23:38.443Z,664.00
2018-02-18T07:24:38.394Z,680.00
2018-02-18T07:25:38.344Z,696.00
2018-02-18T07:26:38.294Z,716.00
2018-02-18T07:27:38.245Z,740.00
2018-02-18T07:28:38.193Z,768.00
2018-02-18T07:29:38.144Z,792.00
2018-02-18T07:30:38.160Z,812.00
2018-02-18T07:31:38.045Z,820.00
2018-02-18T07:32:37.994Z,824.00
2018-02-18T07:33:37.944Z,836.00
2018-02-18T07:34:37.895Z,844.00
2018-02-18T07:35:37.844Z,860.00
2018-02-18T07:36:37.794Z,880.00
2018-02-18T07:37:37.744Z,892.00
2018-02-18T07:38:37.696Z,908.00
2018-02-18T07:39:37.644Z,924.00
2018-02-18T07:40:37.594Z,948.00
2018-02-18T07:41:37.546Z,960.00
2018-02-18T07:42:37.495Z,972.00
2018-02-18T07:43:37.446Z,976.00
2018-02-18T07:44:37.395Z,992.00
2018-02-18T07:45:37.346Z,1004.00
2018-02-18T07:46:37.295Z,1020.00
2018-02-18T07:47:37.246Z,1032.00
2018-02-18T07:48:37.195Z,1048.00
2018-02-18T07:49:37.146Z,1068.00
2018-02-18T07:50:37.096Z,1084.00
2018-02-18T07:51:37.049Z,1104.00
2018-02-18T07:52:36.996Z,1112.00
2018-02-18T07:53:36.947Z,1116.00
2018-02-18T07:54:36.897Z,1124.00
2018-02-18T07:55:36.847Z,1140.00
2018-02-18T07:56:36.798Z,1156.00
2018-02-18T07:57:36.747Z,1168.00
2018-02-18T07:58:36.698Z,1180.00
2018-02-18T07:59:36.649Z,1196.00
2018-02-18T08:00:36.598Z,1216.00
2018-02-18T08:01:36.548Z,1244.00
2018-02-18T08:02:36.499Z,1268.00
2018-02-18T08:03:36.448Z,1288.00
2018-02-18T08:04:36.399Z,1308.00
2018-02-18T08:05:36.349Z,1332.00
2018-02-18T08:06:36.306Z,1360.00
2018-02-18T08:07:36.249Z,1396.00
2018-02-18T08:08:36.199Z,1428.00
2018-02-18T08:09:36.150Z,1456.00
2018-02-18T08:10:36.100Z,1480.00
2018-02-18T08:11:36.050Z,1536.00
2018-02-18T08:12:36.009Z,1604.00
2018-02-18T08:13:35.951Z,1688.00
2018-02-18T08:14:35.902Z,1756.00
2018-02-18T08:15:35.851Z,1848.00
2018-02-18T08:16:35.802Z,1964.00
2018-02-18T08:17:35.752Z,2128.00
2018-02-18T08:18:35.703Z,2352.00
2018-02-18T08:19:35.654Z,2600.00
2018-02-18T08:20:35.603Z,2840.00
2018-02-18T08:21:35.553Z,3056.00
2018-02-18T08:22:35.508Z,3224.00
2018-02-18T08:23:35.453Z,3364.00
2018-02-18T08:24:35.404Z,3464.00
2018-02-18T08:25:35.354Z,3512.00
2018-02-18T08:26:35.307Z,3548.00
2018-02-18T08:27:35.255Z,3592.00
2018-02-18T08:28:35.206Z,3656.00
2018-02-18T08:29:35.156Z,3724.00
2018-02-18T08:30:35.106Z,3780.00
2018-02-18T08:31:35.056Z,3828.00
2018-02-18T08:32:35.007Z,3884.00
2018-02-18T08:33:34.957Z,3924.00
2018-02-18T08:34:34.907Z,3948.00
2018-02-18T08:35:34.857Z,3972.00
2018-02-18T08:36:34.810Z,3996.00
2018-02-18T08:37:34.759Z,4056.00
2018-02-18T08:38:34.709Z,4120.00
2018-02-18T08:39:34.660Z,4188.00
2018-02-18T08:40:34.609Z,4252.00
2018-02-18T08:41:34.561Z,4308.00
2018-02-18T08:42:34.511Z,4348.00
2018-02-18T08:43:34.461Z,4376.00
2018-02-18T08:44:34.411Z,4404.00
2018-02-18T08:45:34.362Z,4420.00
2018-02-18T08:46:34.313Z,4456.00
2018-02-18T08:47:34.263Z,4536.00
2018-02-18T08:48:34.230Z,4620.00
2018-02-18T08:49:34.165Z,4684.00
2018-02-18T08:50:34.129Z,4712.00
2018-02-18T08:51:34.067Z,4720.00
2018-02-18T08:52:34.016Z,4736.00
2018-02-18T08:53:33.967Z,4752.00
2018-02-18T08:54:33.920Z,4752.00
2018-02-18T08:55:33.868Z,4720.00
2018-02-18T08:56:33.819Z,4660.00
2018-02-18T08:57:33.771Z,4604.00
2018-02-18T08:58:33.721Z,4568.00
2018-02-18T08:59:33.672Z,4536.00
2018-02-18T09:00:33.625Z,4524.00
2018-02-18T09:01:33.573Z,4532.00
2018-02-18T09:02:33.525Z,4548.00
2018-02-18T09:03:33.474Z,4572.00
2018-02-18T09:04:33.425Z,4600.00
2018-02-18T09:05:33.381Z,4608.00
2018-02-18T09:06:33.328Z,4592.00
2018-02-18T09:07:33.278Z,4592.00
2018-02-18T09:08:33.229Z,4620.00
2018-02-18T09:09:33.180Z,4652.00
2018-02-18T09:10:33.133Z,4704.00
2018-02-18T09:11:33.081Z,4808.00
2018-02-18T09:12:33.032Z,4900.00
2018-02-18T09:13:32.986Z,4952.00
2018-02-18T09:14:32.934Z,5016.00
2018-02-18T09:15:32.884Z,5092.00
2018-02-18T09:16:32.836Z,5168.00
2018-02-18T09:17:32.787Z,5256.00
2018-02-18T09:18:32.738Z,5336.00
2018-02-18T09:19:32.691Z,5400.00
2018-02-18T09:20:32.639Z,5464.00
2018-02-18T09:21:32.590Z,5536.00
2018-02-18T09:22:32.541Z,5620.00
2018-02-18T09:23:32.491Z,5696.00
2018-02-18T09:24:32.442Z,5748.00
2018-02-18T09:25:32.393Z,5792.00
2018-02-18T09:26:32.344Z,5828.00
2018-02-18T09:27:32.295Z,5788.00
2018-02-18T09:28:32.246Z,5700.00
2018-02-18T09:29:32.197Z,5604.00
2018-02-18T09:30:32.147Z,5528.00
2018-02-18T09:31:32.098Z,5492.00
2018-02-18T09:32:32.048Z,5492.00
2018-02-18T09:33:31.999Z,5512.00
2018-02-18T09:34:31.956Z,5564.00
2018-02-18T09:35:31.900Z,5632.00
2018-02-18T09:36:31.852Z,5712.00
2018-02-18T09:37:31.801Z,5752.00
2018-02-18T09:38:31.753Z,5780.00
2018-02-18T09:39:31.702Z,5800.00
2018-02-18T09:40:31.660Z,5812.00
2018-02-18T09:41:31.603Z,5820.00
2018-02-18T09:42:31.553Z,5820.00
2018-02-18T09:43:31.504Z,5800.00
2018-02-18T09:44:31.455Z,5776.00
2018-02-18T09:45:31.406Z,5724.00
2018-02-18T09:46:31.356Z,5648.00
2018-02-18T09:47:31.306Z,5536.00
2018-02-18T09:48:31.257Z,5412.00
2018-02-18T09:49:31.208Z,5320.00
2018-02-18T09:50:31.157Z,5280.00
2018-02-18T09:51:31.108Z,5260.00
2018-02-18T09:52:31.059Z,5212.00
2018-02-18T09:53:31.009Z,5164.00
2018-02-18T09:54:30.960Z,5160.00
2018-02-18T09:55:30.909Z,5172.00
2018-02-18T09:56:30.860Z,5184.00
2018-02-18T09:57:30.812Z,5192.00
2018-02-18T09:58:30.762Z,5200.00
2018-02-18T09:59:30.712Z,5204.00
2018-02-18T10:00:30.694Z,5192.00
2018-02-18T10:01:30.614Z,5184.00
2018-02-18T10:02:30.564Z,5184.00
2018-02-18T10:03:30.516Z,5192.00
2018-02-18T10:04:30.465Z,5164.00
2018-02-18T10:05:30.416Z,5100.00
2018-02-18T10:06:30.366Z,4980.00
2018-02-18T10:07:30.316Z,4868.00
2018-02-18T10:08:30.267Z,4796.00
2018-02-18T10:09:30.218Z,4748.00
2018-02-18T10:10:30.168Z,4744.00
2018-02-18T10:11:30.118Z,4724.00
2018-02-18T10:12:30.068Z,4680.00
2018-02-18T10:13:30.019Z,4620.00
2018-02-18T10:14:29.972Z,4572.00
2018-02-18T10:15:29.920Z,4584.00
2018-02-18T10:16:29.869Z,4620.00
2018-02-18T10:17:29.820Z,4672.00
2018-02-18T10:18:29.771Z,4716.00
2018-02-18T10:19:29.721Z,4740.00
2018-02-18T10:20:29.671Z,4740.00
2018-02-18T10:21:29.623Z,4748.00
2018-02-18T10:22:29.575Z,4740.00
2018-02-18T10:23:29.521Z,4720.00
2018-02-18T10:24:29.472Z,4672.00
2018-02-18T10:25:29.422Z,4648.00
2018-02-18T10:26:29.373Z,4640.00
2018-02-18T10:27:29.372Z,4628.00
2018-02-18T10:28:29.273Z,4596.00
2018-02-18T10:29:29.227Z,4580.00
2018-02-18T10:30:29.205Z,4588.00
2018-02-18T10:31:29.125Z,4588.00
2018-02-18T10:32:29.104Z,4592.00
2018-02-18T10:33:29.026Z,4592.00
2018-02-18T10:34:28.976Z,4596.00
2018-02-18T10:35:28.926Z,4636.00
2018-02-18T10:36:28.877Z,4676.00
2018-02-18T10:37:28.827Z,4692.00
2018-02-18T10:38:28.779Z,4724.00
2018-02-18T10:39:28.729Z,4760.00
2018-02-18T10:40:28.679Z,4800.00
2018-02-18T10:41:28.680Z,4820.00
2018-02-18T10:42:28.581Z,4800.00
2018-02-18T10:43:28.531Z,4756.00
2018-02-18T10:44:28.482Z,4696.00
2018-02-18T10:45:28.432Z,4636.00
2018-02-18T10:46:28.384Z,4564.00
2018-02-18T10:47:28.333Z,4532.00
2018-02-18T10:48:28.288Z,4532.00
2018-02-18T10:49:28.237Z,4568.00
2018-02-18T10:50:28.185Z,4628.00
2018-02-18T10:51:28.136Z,4720.00
2018-02-18T10:52:28.087Z,4820.00
2018-02-18T10:53:28.038Z,4900.00
2018-02-18T10:54:27.990Z,4972.00
2018-02-18T10:55:27.939Z,5020.00
2018-02-18T10:56:27.893Z,5036.00
2018-02-18T10:57:27.890Z,5028.00
2018-02-18T10:58:27.791Z,4956.00
2018-02-18T10:59:27.741Z,4816.00
2018-02-18T11:00:27.692Z,4704.00
2018-02-18T11:01:27.644Z,4628.00
2018-02-18T11:02:27.598Z,4560.00
2018-02-18T11:03:27.548Z,4512.00
2018-02-18T11:04:27.495Z,4448.00
2018-02-18T11:05:27.447Z,4340.00
2018-02-18T11:06:27.400Z,4236.00
2018-02-18T11:07:27.348Z,4172.00
2018-02-18T11:08:27.302Z,4164.00
2018-02-18T11:09:27.250Z,4192.00
2018-02-18T11:10:27.201Z,4164.00
2018-02-18T11:11:27.201Z,4064.00
2018-02-18T11:12:27.102Z,3984.00
2018-02-18T11:13:27.053Z,3900.00
2018-02-18T11:14:27.008Z,3860.00
2018-02-18T11:15:26.960Z,3856.00
2018-02-18T11:16:26.908Z,3920.00
2018-02-18T11:17:26.859Z,4000.00
2018-02-18T11:18:26.808Z,4028.00
2018-02-18T11:19:26.758Z,4000.00
2018-02-18T11:20:26.709Z,3976.00
2018-02-18T11:21:26.660Z,3968.00
2018-02-18T11:22:26.611Z,3984.00
2018-02-18T11:23:26.581Z,4032.00
2018-02-18T11:24:26.515Z,4052.00
2018-02-18T11:25:26.463Z,4016.00
2018-02-18T11:26:26.414Z,3912.00
2018-02-18T11:27:26.364Z,3824.00
2018-02-18T11:28:26.315Z,3804.00
2018-02-18T11:29:26.268Z,3812.00
2018-02-18T11:30:26.217Z,3824.00
2018-02-18T11:31:26.167Z,3784.00
2018-02-18T11:32:26.118Z,3784.00
2018-02-18T11:33:26.071Z,3744.00
2018-02-18T11:34:26.020Z,3644.00
2018-02-18T11:35:25.970Z,3564.00
2018-02-18T11:36:25.921Z,3552.00
2018-02-18T11:37:25.872Z,3600.00
2018-02-18T11:38:25.823Z,3676.00
2018-02-18T11:39:25.774Z,3728.00
2018-02-18T11:40:25.726Z,3796.00
2018-02-18T11:41:25.676Z,3868.00
2018-02-18T11:42:25.627Z,3952.00
2018-02-18T11:43:25.576Z,4052.00
2018-02-18T11:44:25.530Z,4208.00
2018-02-18T11:45:25.479Z,4392.00
2018-02-18T11:46:25.430Z,4568.00
2018-02-18T11:47:25.380Z,4748.00
2018-02-18T11:48:25.335Z,4912.00
2018-02-18T11:49:25.283Z,5040.00
2018-02-18T11:50:25.235Z,5196.00
2018-02-18T11:51:25.185Z,5340.00
2018-02-18T11:52:25.136Z,5516.00
2018-02-18T11:53:25.088Z,5736.00
2018-02-18T11:54:25.039Z,6088.00
2018-02-18T11:55:24.990Z,6512.00
2018-02-18T11:56:24.941Z,6792.00
2018-02-18T11:57:24.893Z,7024.00
2018-02-18T11:58:24.845Z,7004.00
2018-02-18T11:59:24.795Z,6928.00
2018-02-18T12:00:24.747Z,6912.00
2018-02-18T12:01:24.699Z,6816.00
2018-02-18T12:02:24.651Z,6664.00
2018-02-18T12:03:24.607Z,6528.00
2018-02-18T12:04:24.554Z,6304.00
2018-02-18T12:05:24.505Z,6076.00
2018-02-18T12:06:24.457Z,5836.00
2018-02-18T12:07:24.414Z,5536.00
2018-02-18T12:08:24.360Z,5308.00
2018-02-18T12:09:24.311Z,5108.00
2018-02-18T12:10:24.264Z,4872.00
2018-02-18T12:11:24.215Z,4588.00
2018-02-18T12:12:24.166Z,4328.00
2018-02-18T12:13:24.119Z,4172.00
2018-02-18T12:14:24.070Z,4152.00
2018-02-18T12:15:24.021Z,4140.00
2018-02-18T12:16:23.979Z,4092.00
2018-02-18T12:17:23.928Z,4036.00
2018-02-18T12:18:23.927Z,4028.00
2018-02-18T12:19:23.828Z,4012.00
2018-02-18T12:20:23.780Z,3936.00
2018-02-18T12:21:23.731Z,3824.00
2018-02-18T12:22:23.689Z,3684.00
2018-02-18T12:23:23.634Z,3548.00
2018-02-18T12:24:23.586Z,3456.00
2018-02-18T12:25:23.540Z,3408.00
2018-02-18T12:26:23.489Z,3388.00
2018-02-18T12:27:23.440Z,3396.00
2018-02-18T12:28:23.392Z,3432.00
2018-02-18T12:29:23.343Z,3480.00
2018-02-18T12:30:23.345Z,3476.00
2018-02-18T12:31:23.248Z,3440.00
2018-02-18T12:32:23.198Z,3424.00
2018-02-18T12:33:23.149Z,3364.00
2018-02-18T12:34:23.101Z,3280.00
2018-02-18T12:35:23.052Z,3212.00
2018-02-18T12:36:23.003Z,3156.00
2018-02-18T12:37:22.955Z,3132.00
2018-02-18T12:38:22.906Z,3128.00
2018-02-18T12:39:22.859Z,3080.00
2018-02-18T12:40:22.809Z,3036.00
2018-02-18T12:41:22.760Z,3012.00